Aérodrome :
LOGIN :

S'inscrire | Disclaimer

   EN    FR    IT 

 










Légende :    VFR   VFR Marginal   IFR   IFR Intensif   IFR Très Intensif
Visi : 
Plafond : 
>= 8 km
>= 3000ft
5 à 8 km
1000 à 3000 ft
1500m à 5 km
500 à 1000 ft
800 à 1500m
200 à 500 ft
< 800m
< 200 ft
Symboles :   Orages  Brouillard  Fortes neiges  Fortes précipitations  Vent > 20 kt
SIGMETs :   Divers  Orages  Givrage  Turbulence  Onde Orograph.  Cendres Volcan.







- Altitude de l'aérodrome : 276 ft
- Code IATA : RBA


GMME - Rabat

DERNIER METAR :
  • 210230Z 00000KT 8000 BKN020 17/14 Q1016 NOSIG

METARs EXPIRÉS :
  • 210200Z 00000KT 8000 BKN020 17/14 Q1016 NOSIG
  • 210100Z 15002KT 9999 BKN020 16/13 Q1016 NOSIG
  • 210030Z VRB01KT 9999 SCT020 16/13 Q1016 NOSIG
  • 210000Z VRB02KT 9999 SCT020 17/14 Q1016 NOSIG

TAF TAF GMME
Valide du 21 à 00h jusqu'au 22 à 06h UTC


202300Z 2100/2206 32008KT 8000 SCT013 SCT020
TEMPO 2102/2109 VRB02KT 3000 BR SCT008 BKN015
TEMPO 2104/2108 00000KT 0500 FG BKN005
BECMG 2118/2120 26006KT 6000 SCT010
Pas de NOTAMs connus pour ce terrain.
1 SIGMET publié pour la FIR Casablanca (GMMM) :
 
Orages noyés dans la masse
GMMM SIGMET N2 VALID 210230/210630 GMMC
GMMM CASABLANCA FIR EMBD TS FCST NW OF LINE N3548 W00455 - N3452 W00 602 TOP FL320 MOV NW NC=



MET'MAP, la Météo Aéronautique d'un coup d'oeil ! - Copyright ORBIFLY Décembre 2007 - Disclaimer

ORBIFLY MET'MAP TEAM :

Programmation & Développement : Alexandra Zaïnal
Conception & Développement : Baudouin d'Aumeries
Co-Programmation & Développement : Marc-Olivier Méhu
Soutien technique & logistique : Manuel Goepfert

Contact : metmap@orbifly.com




SOURCES & CREDITS :

   NOAA